Latest Weather Observations for Orange Airport

IDN60801

Issued at 9:32 am EST Sunday 19 April 2015 (issued every 30 minutes, with the page automatically refreshed every 10 minutes)

About weather observations | Map of weather stations | Latest weather observations for NSW | Other Formats
Station Details ID: 063303 Name: ORANGE AIRPORT AWS Lat: -33.38 Lon: 149.13 Height: 944.65 m
Data from the previous 72 hours. | See also: Recent months at Orange Airport
Date/Time
EST
Temp
°C
App
Temp
°C
Dew
Point
Rel
Hum
%
Delta-T
°C
Wind Press
QNH
hPa
Press
MSL
hPa
Rain
since 9 am
mm
Dir
 
Spd
km/h
Gust
km/h
Spd
kts
Gust
kts
19/09:30am 10.8 6.8 8.9 88 1.0 SW 20 30 11 16 1021.9 1020.2 0.0
19/09:00am 10.4 6.6 9.2 92 0.6 SSW 19 24 10 13 1021.7 1020.0 21.6
19/08:30am 9.9 6.4 8.8 93 0.6 SSW 17 26 9 14 1021.4 1019.8 21.6
19/08:00am 9.3 4.7 8.2 93 0.6 SSW 22 32 12 17 1021.0 1019.3 21.6
19/07:30am 9.2 4.6 8.1 93 0.6 SSW 22 28 12 15 1020.8 1019.1 21.6
19/07:00am 9.1 4.8 8.0 93 0.6 SSW 20 26 11 14 1020.1 1018.4 21.6
19/06:34am 8.7 3.6 7.6 93 0.6 SW 24 32 13 17 1020.1 1018.4 21.6
19/06:30am 8.6 3.1 7.5 93 0.5 SW 26 33 14 18 1019.9 1018.2 21.6
19/06:00am 8.4 3.2 7.3 93 0.5 SW 24 32 13 17 1019.1 1017.4 21.6
19/05:54am 8.4 3.6 7.3 93 0.5 SW 22 32 12 17 1018.9 1017.2 21.6
19/05:33am 8.4 4.2 7.3 93 0.5 SW 19 26 10 14 1019.1 1017.4 21.6
19/05:30am 8.3 4.0 7.2 93 0.5 SW 19 28 10 15 1019.1 1017.4 21.6
19/05:00am 8.5 4.1 7.4 93 0.5 SW 20 26 11 14 1018.6 1016.9 21.6
19/04:42am 8.7 4.5 7.6 93 0.6 SW 19 26 10 14 1018.4 1016.7 21.6
19/04:31am 9.0 4.7 7.9 93 0.6 SW 20 28 11 15 1018.4 1016.7 21.6
19/04:30am 9.0 4.7 7.9 93 0.6 SW 20 28 11 15 1018.4 1016.7 21.6
19/04:28am 9.0 4.7 7.9 93 0.6 SW 20 28 11 15 1018.4 1016.7 21.6
19/04:00am 8.5 2.2 7.4 93 0.5 SW 30 37 16 20 1017.9 1016.2 21.6
19/03:46am 9.8 4.2 8.7 93 0.6 SW 28 41 15 22 1017.9 1016.2 21.6
19/03:31am 11.5 6.7 10.4 93 0.6 WSW 26 33 14 18 1017.8 1016.1 21.4
19/03:30am 11.5 6.7 10.4 93 0.6 WSW 26 33 14 18 1017.8 1016.1 21.4
19/03:25am 11.6 6.9 10.5 93 0.6 WSW 26 32 14 17 1017.8 1016.1 21.4
19/03:00am 12.3 8.9 11.2 93 0.6 WSW 20 28 11 15 1017.7 1016.0 21.2
19/02:30am 12.5 9.3 11.4 93 0.6 W 19 32 10 17 1017.8 1016.1 21.2
19/02:23am 12.5 10.5 11.4 93 0.6 WNW 13 17 7 9 1017.9 1016.2 21.0
19/02:16am 12.5 10.5 11.4 93 0.6 WNW 13 15 7 8 1017.9 1016.2 21.0
19/02:00am 12.4 9.6 11.3 93 0.6 NW 17 20 9 11 1018.2 1016.4 20.8
19/01:30am 12.1 10.7 11.0 93 0.6 N 9 15 5 8 1018.5 1016.8 20.4
19/01:27am 12.0 10.6 10.9 93 0.6 NNW 9 13 5 7 1018.5 1016.8 20.4
19/01:00am 12.1 12.1 11.0 93 0.6 W 2 9 1 5 1018.6 1016.9 20.4
19/12:30am 12.0 11.0 10.9 93 0.6 W 7 13 4 7 1018.6 1016.9 20.4
19/12:20am 11.9 10.1 10.8 93 0.6 W 11 13 6 7 1018.8 1017.1 20.4
19/12:00am 11.8 10.0 10.7 93 0.6 WSW 11 15 6 8 1018.9 1017.2 20.4
 
Date/Time
EST
Temp
°C
App
Temp
°C
Dew
Point
Rel
Hum
%
Delta-T
°C
Wind Press
QNH
hPa
Press
MSL
hPa
Rain
since 9 am
mm
Dir
 
Spd
km/h
Gust
km/h
Spd
kts
Gust
kts
18/11:30pm 12.0 11.0 10.9 93 0.6 WNW 7 9 4 5 1019.0 1017.3 20.4
18/11:07pm 12.3 10.6 11.2 93 0.6 WSW 11 15 6 8 1018.9 1017.2 20.4
18/11:00pm 12.4 10.3 11.3 93 0.6 WSW 13 17 7 9 1018.9 1017.2 20.4
18/10:30pm 12.6 9.3 11.5 93 0.6 WSW 20 24 11 13 1019.1 1017.4 20.4
18/10:25pm 12.5 9.3 11.4 93 0.6 WSW 19 24 10 13 1019.3 1017.5 20.4
18/10:00pm 12.4 9.0 11.3 93 0.6 WSW 20 30 11 16 1019.0 1017.3 20.4
18/09:46pm 12.5 9.1 11.4 93 0.6 WSW 20 28 11 15 1019.0 1017.3 20.4
18/09:30pm 12.8 9.2 11.7 93 0.6 WSW 22 26 12 14 1019.0 1017.3 20.2
18/09:00pm 13.0 10.0 11.9 93 0.6 WSW 19 24 10 13 1019.3 1017.5 19.8
18/08:54pm 12.9 9.7 11.8 93 0.6 WSW 20 32 11 17 1019.1 1017.4 19.4
18/08:44pm 13.7 12.8 12.6 93 0.6 WNW 9 17 5 9 1018.9 1017.2 18.8
18/08:30pm 13.7 12.8 12.6 93 0.6 N 9 13 5 7 1018.7 1017.0 17.2
18/08:00pm 13.5 13.1 12.4 93 0.6 WNW 6 7 3 4 1018.5 1016.8 16.0
18/07:30pm 13.8 13.3 12.7 93 0.6 W 7 9 4 5 1018.1 1016.3 15.8
18/07:00pm 14.1 12.6 13.0 93 0.6 WNW 13 17 7 9 1018.1 1016.3 15.4
18/06:30pm 14.6 11.9 13.5 93 0.6 WNW 20 33 11 18 1017.7 1016.0 13.4
18/06:29pm 14.6 12.1 13.5 93 0.6 WNW 19 26 10 14 1017.8 1016.1 13.4
18/06:09pm 15.0 12.1 13.9 93 0.6 NW 22 32 12 17 1017.7 1016.0 11.6
18/06:00pm 15.1 13.1 14.0 93 0.6 NNW 17 24 9 13 1017.5 1015.8 10.4
18/05:59pm 15.1 12.8 14.0 93 0.6 NW 19 24 10 13 1017.5 1015.8 10.2
18/05:30pm 15.3 11.7 14.2 93 0.7 NNW 26 39 14 21 1017.2 1015.4 4.0
18/05:24pm 15.6 12.5 14.5 93 0.7 NNW 24 37 13 20 1017.3 1015.5 2.8
18/05:00pm 16.9 13.6 14.0 83 1.7 NNW 24 33 13 18 1017.0 1015.2 0.2
18/04:30pm 17.7 14.3 13.6 77 2.4 N 24 35 13 19 1016.5 1014.8 0.0
18/04:00pm 18.3 14.1 13.6 74 2.8 NNW 28 39 15 21 1016.6 1014.9 0.0
18/03:30pm 18.7 13.9 14.0 74 2.8 NNW 32 43 17 23 1017.0 1015.2 0.0
18/03:10pm 19.1 15.0 13.7 71 3.2 NNW 28 46 15 25 1017.1 1015.3 0.0
18/03:00pm 19.3 14.8 13.7 70 3.3 NNW 30 41 16 22 1017.2 1015.4 0.0
18/02:30pm 19.1 14.7 14.1 73 3.0 NNW 30 41 16 22 1017.5 1015.8 0.0
18/02:00pm 19.4 16.1 15.1 76 2.6 NNW 26 37 14 20 1017.7 1016.0 0.0
18/01:30pm 18.6 15.7 15.1 80 2.1 N 24 32 13 17 1018.1 1016.3 0.0
18/01:00pm 17.4 14.4 14.7 84 1.6 N 24 33 13 18 1018.8 1017.1 0.0
18/12:30pm 17.4 15.0 14.5 83 1.7 NNW 20 28 11 15 1019.3 1017.5 0.0
18/12:00pm 17.2 13.3 14.3 83 1.7 N 28 39 15 21 1019.7 1018.0 0.0
18/11:52am 17.9 14.1 14.8 82 1.9 N 28 46 15 25 1019.8 1018.1 0.0
18/11:30am 18.0 13.1 14.3 79 2.2 NNW 33 48 18 26 1020.2 1018.6 0.0
18/11:00am 17.3 12.5 14.0 81 2.0 NNW 32 44 17 24 1020.9 1019.2 0.0
18/10:30am 17.7 13.8 14.4 81 2.0 N 28 43 15 23 1021.2 1019.6 0.0
18/10:00am 17.0 12.9 13.9 82 1.8 NNW 28 35 15 19 1021.4 1019.8 0.0
18/09:30am 17.3 13.3 14.0 81 2.0 NNW 28 35 15 19 1021.6 1019.9 0.0
18/09:00am 16.6 11.8 13.9 84 1.6 NNW 32 44 17 24 1021.9 1020.2 1.6
18/08:30am 16.4 11.8 13.5 83 1.7 NNW 30 39 16 21 1021.7 1020.0 1.6
18/08:00am 15.9 11.7 13.6 86 1.3 N 28 35 15 19 1021.6 1019.9 1.6
18/07:30am 15.1 12.0 13.3 89 1.0 N 22 30 12 16 1021.4 1019.8 1.6
18/07:00am 14.8 12.0 13.3 91 0.9 N 20 26 11 14 1021.2 1019.6 1.6
18/06:30am 14.6 12.1 13.5 93 0.6 N 19 20 10 11 1021.1 1019.5 1.6
18/06:00am 14.1 11.8 13.0 93 0.6 N 17 20 9 11 1021.0 1019.3 1.6
18/05:30am 14.4 12.6 13.3 93 0.6 N 15 19 8 10 1020.9 1019.2 1.6
18/05:00am 15.0 13.0 13.9 93 0.6 N 17 24 9 13 1020.7 1019.0 1.6
18/04:30am 15.1 13.5 14.0 93 0.6 N 15 19 8 10 1020.8 1019.1 1.6
18/04:00am 15.2 12.9 14.1 93 0.6 N 19 24 10 13 1020.5 1018.8 1.6
18/03:30am 15.1 13.1 14.0 93 0.6 N 17 22 9 12 1020.6 1018.9 1.6
18/03:00am 14.8 13.9 13.7 93 0.6 N 11 17 6 9 1020.8 1019.1 1.6
18/02:30am 15.0 13.0 13.9 93 0.6 N 17 20 9 11 1021.0 1019.3 1.6
18/02:00am 14.9 12.9 13.8 93 0.6 N 17 24 9 13 1021.2 1019.6 1.6
18/01:30am 15.1 13.1 14.0 93 0.6 NNE 17 20 9 11 1021.4 1019.8 1.6
18/01:00am 15.0 13.0 13.9 93 0.6 NNE 17 26 9 14 1021.7 1020.0 1.6
18/12:30am 14.6 13.6 13.5 93 0.6 N 11 15 6 8 1022.1 1020.5 1.6
18/12:00am 14.9 14.4 13.8 93 0.6 N 9 13 5 7 1022.3 1020.7 1.6
 
Date/Time
EST
Temp
°C
App
Temp
°C
Dew
Point
Rel
Hum
%
Delta-T
°C
Wind Press
QNH
hPa
Press
MSL
hPa
Rain
since 9 am
mm
Dir
 
Spd
km/h
Gust
km/h
Spd
kts
Gust
kts
17/11:30pm 15.6 13.8 14.5 93 0.7 NNE 17 20 9 11 1022.7 1021.0 1.6
17/11:00pm 15.8 13.7 14.7 93 0.7 NE 19 24 10 13 1022.7 1021.0 1.6
17/10:30pm 16.3 14.4 15.2 93 0.7 NE 19 24 10 13 1023.1 1021.5 1.6
17/10:00pm 16.4 14.5 15.3 93 0.7 NE 19 24 10 13 1023.0 1021.4 1.6
17/09:30pm 16.4 14.9 15.3 93 0.7 NE 17 22 9 12 1022.9 1021.2 1.6
17/09:00pm 16.2 15.4 15.1 93 0.7 NE 13 17 7 9 1022.9 1021.2 1.6
17/08:30pm 16.4 15.3 15.3 93 0.7 NE 15 20 8 11 1022.9 1021.2 1.6
17/08:00pm 16.4 15.7 15.3 93 0.7 NE 13 19 7 10 1022.8 1021.1 1.6
17/07:30pm 16.1 15.3 15.0 93 0.7 NE 13 17 7 9 1022.8 1021.1 1.6
17/07:00pm 16.3 14.8 15.2 93 0.7 NE 17 22 9 12 1022.5 1020.9 1.6
17/06:30pm 16.3 14.8 15.2 93 0.7 NE 17 20 9 11 1022.5 1020.9 1.6
17/06:00pm 16.4 15.7 15.3 93 0.7 NE 13 17 7 9 1022.3 1020.7 1.6
17/05:30pm 16.7 15.7 15.6 93 0.7 NE 15 20 8 11 1022.1 1020.5 1.6
17/05:00pm 17.1 16.6 16.0 93 0.7 NE 13 19 7 10 1022.1 1020.5 1.6
17/04:30pm 17.5 17.3 15.8 90 1.0 ENE 11 15 6 8 1022.2 1020.6 1.6
17/04:00pm 17.9 17.8 15.9 88 1.2 ENE 11 15 6 8 1022.4 1020.8 1.6
17/03:30pm 18.4 17.9 16.0 86 1.5 ENE 13 17 7 9 1022.8 1021.1 1.6
17/03:00pm 18.4 18.7 16.0 86 1.5 NE 9 13 5 7 1023.0 1021.4 1.6
17/02:30pm 17.9 17.5 15.3 85 1.6 NE 11 15 6 8 1023.4 1021.8 1.6
17/02:22pm 17.9 17.6 15.5 86 1.5 NE 11 15 6 8 1023.4 1021.8 1.6
17/02:00pm 17.8 17.9 15.4 86 1.5 ENE 9 13 5 7 1023.5 1021.9 1.6
17/01:40pm 17.7 17.7 15.3 86 1.5 NE 9 13 5 7 1023.5 1021.9 1.6
17/01:30pm 17.7 17.8 15.5 87 1.3 NE 9 13 5 7 1023.8 1022.1 1.6
17/01:00pm 17.7 17.2 15.0 84 1.6 NNE 11 15 6 8 1024.2 1022.6 1.6
17/12:34pm 17.9 18.1 15.7 87 1.4 NE 9 13 5 7 1024.7 1023.1 1.6
17/12:30pm 17.8 17.6 15.6 87 1.4 NE 11 17 6 9 1024.8 1023.3 1.6
17/12:00pm 16.9 16.6 15.4 91 0.9 ENE 11 15 6 8 1025.3 1023.7 1.6
17/11:30am 16.4 16.4 15.3 93 0.7 ESE 9 13 5 7 1026.1 1024.5 1.6
17/11:17am 16.3 15.9 15.2 93 0.7 ESE 11 13 6 7 1026.4 1024.8 1.6
17/11:02am 15.9 16.3 14.8 93 0.7 SE 6 11 3 6 1026.7 1025.2 1.6
17/11:00am 15.7 16.0 14.6 93 0.7 SE 6 9 3 5 1026.7 1025.2 1.6
17/10:30am 15.6 16.3 14.5 93 0.7 ESE 4 9 2 5 1027.0 1025.5 1.6
17/10:14am 15.6 15.7 14.5 93 0.7 ESE 7 9 4 5 1027.0 1025.5 1.6
17/10:00am 15.4 15.4 14.3 93 0.7 SE 7 9 4 5 1027.0 1025.5 1.6
17/09:30am 15.2 16.5 14.1 93 0.7 CALM 0 0 0 0 1027.4 1025.8 1.2
17/09:28am 15.2 16.5 14.1 93 0.7 CALM 0 0 0 0 1027.4 1025.8 1.2
17/09:00am 15.0 16.2 13.9 93 0.6 CALM 0 0 0 0 1027.6 1026.0 8.0
17/08:55am 15.1 16.4 14.0 93 0.6 CALM 0 0 0 0 1027.5 1025.9 7.6
17/08:54am 15.1 16.4 14.0 93 0.6 CALM 0 4 0 2 1027.5 1025.9 7.4
17/08:31am 15.0 15.1 13.9 93 0.6 S 6 7 3 4 1027.0 1025.5 5.6
17/08:30am 15.0 15.1 13.9 93 0.6 S 6 7 3 4 1027.0 1025.5 5.4
17/08:00am 14.9 16.1 13.8 93 0.6 CALM 0 7 0 4 1026.4 1024.8 4.6
17/07:30am 14.7 14.7 13.6 93 0.6 NE 6 7 3 4 1026.1 1024.5 4.6
17/07:00am 14.4 14.1 13.3 93 0.6 ENE 7 9 4 5 1025.6 1024.0 4.6
17/06:30am 14.3 13.2 13.2 93 0.6 NE 11 15 6 8 1025.4 1023.8 4.6
17/06:00am 14.2 13.5 13.1 93 0.6 ENE 9 13 5 7 1025.3 1023.7 4.6
17/05:30am 14.2 14.4 13.1 93 0.6 ENE 4 9 2 5 1025.2 1023.6 4.6
17/05:00am 13.8 13.3 12.7 93 0.6 ENE 7 7 4 4 1024.8 1023.3 4.0
17/04:30am 14.0 14.9 12.9 93 0.6 CALM 0 0 0 0 1024.7 1023.1 4.0
17/04:00am 13.9 13.4 12.8 93 0.6 E 7 11 4 6 1024.4 1022.8 4.0
17/03:30am 13.9 14.0 12.8 93 0.6 SSE 4 7 2 4 1024.4 1022.8 4.0
17/03:00am 14.3 14.9 13.2 93 0.6 SSE 2 7 1 4 1024.5 1022.9 4.0
17/02:30am 14.7 13.8 13.6 93 0.6 S 11 13 6 7 1024.8 1023.3 3.8
17/02:00am 14.5 14.4 13.4 93 0.6 ENE 6 7 3 4 1025.4 1023.8 3.8
17/01:30am 14.7 13.8 13.6 93 0.6 S 11 13 6 7 1025.5 1023.9 3.8
17/01:00am 14.5 14.4 13.4 93 0.6 SSW 6 7 3 4 1025.8 1024.3 3.8
17/12:30am 14.2 15.2 13.1 93 0.6 CALM 0 0 0 0 1026.2 1024.6 3.8
17/12:00am 14.6 15.7 13.5 93 0.6 CALM 0 0 0 0 1026.6 1025.0 3.8
 
Date/Time
EST
Temp
°C
App
Temp
°C
Dew
Point
Rel
Hum
%
Delta-T
°C
Wind Press
QNH
hPa
Press
MSL
hPa
Rain
since 9 am
mm
Dir
 
Spd
km/h
Gust
km/h
Spd
kts
Gust
kts
16/11:38pm 14.7 13.4 13.6 93 0.6 NW 13 20 7 11 1027.0 1025.5 3.0
16/11:30pm 14.8 12.2 13.7 93 0.6 NNW 20 33 11 18 1027.0 1025.5 2.4
16/11:22pm 15.0 10.9 13.9 93 0.6 NNW 28 35 15 19 1026.9 1025.4 1.6
16/11:19pm 15.0 10.9 13.9 93 0.6 NNW 28 37 15 20 1026.8 1025.3 1.2
16/11:00pm 14.9 15.3 12.6 86 1.3 ESE 2 7 1 4 1025.8 1024.3 0.0
16/10:30pm 14.7 15.5 12.6 87 1.2 CALM 0 0 0 0 1025.9 1024.4 0.0
16/10:00pm 14.6 14.9 12.3 86 1.3 ENE 2 6 1 3 1026.1 1024.5 0.0
16/09:30pm 14.8 15.7 13.0 89 1.0 CALM 0 0 0 0 1026.2 1024.6 0.0
16/09:00pm 13.3 13.9 11.9 91 0.8 CALM 0 6 0 3 1026.3 1024.7 0.0
16/08:30pm 13.5 12.0 10.7 83 1.5 WSW 9 11 5 6 1026.2 1024.6 0.0
16/08:00pm 13.8 14.2 11.3 85 1.4 CALM 0 0 0 0 1025.9 1024.4 0.0
16/07:30pm 14.2 14.5 11.0 81 1.8 CALM 0 0 0 0 1025.9 1024.4 0.0
16/07:00pm 15.3 15.8 11.5 78 2.1 CALM 0 0 0 0 1025.6 1024.0 0.0
16/06:30pm 15.9 16.3 11.3 74 2.6 CALM 0 0 0 0 1025.2 1023.6 0.0
16/06:00pm 18.8 18.3 11.9 64 4.0 WSW 6 9 3 5 1025.0 1023.4 0.0
16/05:30pm 19.7 18.6 12.0 61 4.5 W 9 9 5 5 1024.8 1023.3 0.0
16/05:00pm 21.6 19.3 11.6 53 5.8 WNW 15 20 8 11 1024.7 1023.1 0.0
16/04:30pm 22.9 20.8 12.5 52 6.2 W 15 19 8 10 1024.7 1023.1 0.0
16/04:00pm 22.8 20.5 11.8 50 6.4 W 15 20 8 11 1024.7 1023.1 0.0
16/03:30pm 23.1 19.5 11.8 49 6.6 WSW 22 28 12 15 1025.0 1023.4 0.0
16/03:00pm 23.4 20.1 11.5 47 7.0 WNW 20 26 11 14 1025.1 1023.5 0.0
16/02:30pm 23.9 20.3 11.9 47 7.1 W 22 35 12 19 1025.3 1023.7 0.0
16/02:00pm 23.6 19.5 11.6 47 7.0 WNW 24 37 13 20 1025.4 1023.8 0.0
16/01:30pm 23.1 19.5 11.8 49 6.6 WNW 22 33 12 18 1025.5 1023.9 0.0
16/01:00pm 22.4 19.4 12.4 53 5.9 WNW 20 30 11 16 1026.1 1024.5 0.0
16/12:30pm 22.2 18.1 12.7 55 5.7 WNW 26 35 14 19 1026.5 1024.9 0.0
16/12:00pm 21.9 18.8 13.3 58 5.1 NW 22 28 12 15 1026.8 1025.3 0.0
16/11:30am 20.9 18.0 12.8 60 4.8 NW 20 33 11 18 1027.3 1025.7 0.0
16/11:00am 20.7 17.7 12.7 60 4.7 NW 20 26 11 14 1027.6 1026.0 0.0
16/10:30am 20.8 17.7 13.3 62 4.5 NW 22 32 12 17 1027.6 1026.0 0.0
16/10:00am 19.9 14.9 12.2 61 4.5 NW 30 39 16 21 1027.7 1026.2 0.0

Other Formats:

Comma delimited format used in spreadsheet applications
http://www.bom.gov.au/fwo/IDN60801/IDN60801.95726.axf

JavaScript Object Notation format (JSON) in row-major order
http://www.bom.gov.au/fwo/IDN60801/IDN60801.95726.json